createdAt,value
2023-04-15T00:00:07.964Z,10.51
2023-04-15T00:05:17.287Z,10.63
2023-04-15T00:10:21.468Z,10.22
2023-04-15T00:15:24.377Z,10.34
2023-04-15T00:20:38.478Z,10.19
2023-04-15T00:25:42.925Z,10.18
2023-04-15T00:30:46.101Z,10.01
2023-04-15T00:35:49.172Z,10.14
2023-04-15T00:40:53.539Z,10.18
2023-04-15T00:46:17.248Z,10.05
2023-04-15T00:51:20.204Z,10.28
2023-04-15T00:56:27.093Z,10.22
2023-04-15T01:01:30.738Z,10.19
2023-04-15T01:06:33.731Z,10.18
2023-04-15T01:11:53.195Z,10.00
2023-04-15T01:16:56.408Z,10.06
2023-04-15T01:22:00.317Z,9.82
2023-04-15T01:27:05.363Z,9.88
2023-04-15T01:32:08.259Z,9.89
2023-04-15T01:37:27.735Z,10.08
2023-04-15T01:42:32.649Z,9.89
2023-04-15T01:47:35.666Z,9.78
2023-04-15T01:52:38.810Z,9.82
2023-04-15T01:57:44.121Z,9.84
2023-04-15T02:03:05.410Z,9.84
2023-04-15T02:08:08.364Z,9.69
2023-04-15T02:13:15.180Z,9.79
2023-04-15T02:18:18.185Z,9.84
2023-04-15T02:23:21.167Z,9.76
2023-04-15T02:28:41.123Z,9.89
2023-04-15T02:33:44.150Z,9.87
2023-04-15T02:38:47.172Z,9.76
2023-04-15T02:43:52.735Z,9.68
2023-04-15T02:48:55.810Z,9.69
2023-04-15T02:54:16.377Z,9.73
2023-04-15T02:59:20.573Z,9.74
2023-04-15T03:04:23.481Z,9.63
2023-04-15T03:09:26.699Z,9.67
2023-04-15T03:14:34.161Z,9.69
2023-04-15T03:19:52.629Z,9.55
2023-04-15T03:24:55.620Z,9.33
2023-04-15T03:29:59.902Z,9.23
2023-04-15T03:35:06.684Z,9.28
2023-04-15T03:40:10.520Z,9.47
2023-04-15T03:45:34.104Z,9.52
2023-04-15T03:50:36.873Z,9.70
2023-04-15T03:55:39.925Z,9.71
2023-04-15T04:00:44.071Z,9.68
2023-04-15T04:05:47.070Z,9.59
2023-04-15T04:11:05.433Z,9.49
2023-04-15T04:16:09.681Z,9.36
2023-04-15T04:21:13.933Z,9.46
2023-04-15T04:26:16.789Z,9.44
2023-04-15T04:31:21.251Z,9.32
2023-04-15T04:36:40.626Z,9.16
2023-04-15T04:41:43.495Z,9.09
2023-04-15T04:46:48.801Z,9.01
2023-04-15T04:51:51.707Z,8.96
2023-04-15T04:57:00.863Z,8.95
2023-04-15T05:02:18.106Z,8.97
2023-04-15T05:07:21.341Z,8.99
2023-04-15T05:12:24.259Z,8.99
2023-04-15T05:17:28.500Z,9.02
2023-04-15T05:22:31.473Z,9.01
2023-04-15T05:27:52.998Z,9.02
2023-04-15T05:32:57.365Z,9.07
2023-04-15T05:38:00.642Z,9.13
2023-04-15T05:43:03.466Z,9.21
2023-04-15T05:48:08.391Z,9.42
2023-04-15T05:53:29.783Z,9.39
2023-04-15T05:58:32.676Z,9.48
2023-04-15T06:03:37.078Z,9.52
2023-04-15T06:08:39.990Z,9.74
2023-04-15T06:13:43.018Z,9.95
2023-04-15T06:19:07.474Z,10.12
2023-04-15T06:29:35.734Z,10.50
2023-04-15T06:34:39.986Z,10.83
2023-04-15T06:39:42.930Z,11.20
2023-04-15T06:44:45.911Z,11.31
2023-04-15T06:49:50.387Z,11.18
2023-04-15T06:54:53.306Z,11.55
2023-04-15T06:59:56.239Z,12.30
2023-04-15T07:05:00.720Z,14.00
2023-04-15T07:10:18.513Z,13.87
2023-04-15T07:15:22.285Z,13.84
2023-04-15T07:20:26.764Z,13.54
2023-04-15T07:25:29.723Z,13.37
2023-04-15T07:30:33.038Z,13.90
2023-04-15T07:35:56.522Z,13.61
2023-04-15T07:40:59.434Z,13.73
2023-04-15T07:46:02.527Z,13.72
2023-04-15T07:51:07.392Z,13.43
2023-04-15T07:56:10.283Z,13.38
2023-04-15T08:01:32.993Z,13.82
2023-04-15T08:06:39.694Z,13.42
2023-04-15T08:11:42.823Z,13.60
2023-04-15T08:16:45.669Z,13.55
2023-04-15T08:21:50.103Z,14.03
2023-04-15T08:27:08.188Z,14.32
2023-04-15T08:32:11.172Z,14.49
2023-04-15T08:37:15.525Z,14.15
2023-04-15T08:42:19.195Z,14.75
2023-04-15T08:47:22.809Z,14.45
2023-04-15T08:52:44.966Z,14.54
2023-04-15T08:57:47.827Z,15.26
2023-04-15T09:02:51.039Z,15.61
2023-04-15T09:07:55.447Z,15.91
2023-04-15T09:12:58.650Z,15.94
2023-04-15T09:18:29.666Z,16.30
2023-04-15T09:23:36.210Z,16.14
2023-04-15T09:28:43.387Z,15.74
2023-04-15T09:33:56.393Z,15.74
2023-04-15T09:39:01.719Z,15.51
2023-04-15T09:44:05.508Z,15.91
2023-04-15T09:49:09.311Z,16.26
2023-04-15T09:54:13.647Z,16.57
2023-04-15T09:59:16.549Z,16.59
2023-04-15T10:04:19.692Z,16.40
2023-04-15T10:09:34.810Z,16.23
2023-04-15T10:14:39.617Z,16.23
2023-04-15T10:19:42.864Z,16.21
2023-04-15T10:24:48.323Z,16.56
2023-04-15T10:29:52.387Z,16.64
2023-04-15T10:35:10.821Z,16.83
2023-04-15T10:40:28.913Z,16.79
2023-04-15T10:45:35.407Z,16.96
2023-04-15T10:50:39.425Z,17.06
2023-04-15T10:55:43.673Z,17.12
2023-04-15T11:00:52.735Z,17.08
2023-04-15T11:05:57.514Z,16.98
2023-04-15T11:11:01.949Z,16.92
2023-04-15T11:16:05.026Z,17.08
2023-04-15T11:21:09.454Z,16.26
2023-04-15T11:26:27.647Z,16.10
2023-04-15T11:31:30.577Z,16.44
2023-04-15T11:36:33.595Z,16.74
2023-04-15T11:41:38.281Z,16.96
2023-04-15T11:46:41.124Z,17.14
2023-04-15T11:51:58.371Z,17.11
2023-04-15T11:57:03.174Z,17.16
2023-04-15T12:02:13.357Z,17.23
2023-04-15T12:07:16.638Z,17.09
2023-04-15T12:12:24.289Z,17.49
2023-04-15T12:17:51.851Z,17.80
2023-04-15T12:22:55.206Z,17.50
2023-04-15T12:27:59.544Z,17.29
2023-04-15T12:33:04.959Z,17.17
2023-04-15T12:38:09.039Z,17.54
2023-04-15T12:43:13.512Z,16.91
2023-04-15T12:48:16.506Z,16.61
2023-04-15T12:53:19.569Z,16.62
2023-04-15T12:58:23.793Z,16.56
2023-04-15T13:03:26.930Z,16.41
2023-04-15T13:08:57.170Z,16.43
2023-04-15T13:14:02.330Z,16.33
2023-04-15T13:19:05.585Z,15.78
2023-04-15T13:24:09.485Z,15.49
2023-04-15T13:29:14.229Z,15.29
2023-04-15T13:34:23.053Z,15.08
2023-04-15T13:39:26.556Z,15.12
2023-04-15T13:44:30.800Z,15.18
2023-04-15T13:49:33.638Z,15.14
2023-04-15T13:54:37.933Z,14.96
2023-04-15T13:59:59.356Z,14.99
2023-04-15T14:05:02.466Z,15.16
2023-04-15T14:10:06.124Z,15.30
2023-04-15T14:15:11.408Z,15.12
2023-04-15T14:20:16.836Z,14.94
2023-04-15T14:25:34.583Z,15.15
2023-04-15T14:30:39.341Z,14.73
2023-04-15T14:35:42.453Z,14.99
2023-04-15T14:40:45.442Z,15.12
2023-04-15T14:45:49.706Z,14.81
2023-04-15T14:51:11.056Z,14.50
2023-04-15T14:56:13.977Z,14.59
2023-04-15T15:01:18.239Z,14.54
2023-04-15T15:06:22.209Z,14.54
2023-04-15T15:11:27.291Z,14.36
2023-04-15T15:16:48.402Z,14.05
2023-04-15T15:21:51.396Z,13.88
2023-04-15T15:26:55.337Z,13.80
2023-04-15T15:32:00.258Z,13.70
2023-04-15T15:37:03.181Z,13.54
2023-04-15T15:42:24.512Z,13.37
2023-04-15T15:47:30.574Z,13.09
2023-04-15T15:52:33.436Z,13.06
2023-04-15T15:57:36.672Z,13.18
2023-04-15T16:08:00.207Z,13.02
2023-04-15T16:13:03.797Z,13.04
2023-04-15T16:18:09.130Z,12.91
2023-04-15T16:23:14.122Z,12.80
2023-04-15T16:28:26.295Z,12.71
2023-04-15T16:33:38.640Z,12.81
2023-04-15T16:38:41.621Z,12.66
2023-04-15T16:43:44.515Z,12.32
2023-04-15T16:48:48.957Z,12.11
2023-04-15T16:53:51.987Z,12.03
2023-04-15T16:59:14.961Z,11.84
2023-04-15T17:04:19.555Z,11.71
2023-04-15T17:09:41.572Z,11.72
2023-04-15T17:14:44.632Z,11.60
2023-04-15T17:19:48.953Z,11.53
2023-04-15T17:24:51.961Z,11.59
2023-04-15T17:29:54.956Z,11.81
2023-04-15T17:34:59.274Z,11.87
2023-04-15T17:40:02.547Z,11.76
2023-04-15T17:45:08.713Z,11.74
2023-04-15T17:50:27.899Z,11.70
2023-04-15T17:55:31.389Z,11.57
2023-04-15T18:00:34.275Z,11.48
2023-04-15T18:05:39.153Z,11.39
2023-04-15T18:10:43.671Z,11.21
2023-04-15T18:16:05.554Z,11.19
2023-04-15T18:21:11.646Z,11.16
2023-04-15T18:26:16.354Z,11.08
2023-04-15T18:31:19.309Z,11.04
2023-04-15T18:36:24.146Z,10.86
2023-04-15T18:41:39.331Z,10.86
2023-04-15T18:46:42.138Z,10.76
2023-04-15T18:51:53.291Z,10.73
2023-04-15T18:56:56.494Z,10.74
2023-04-15T19:01:59.792Z,10.81
2023-04-15T19:07:17.533Z,10.77
2023-04-15T19:12:20.352Z,10.74
2023-04-15T19:17:23.285Z,10.77
2023-04-15T19:22:27.986Z,10.65
2023-04-15T19:27:30.933Z,10.74
2023-04-15T19:32:51.557Z,10.74
2023-04-15T19:37:55.980Z,10.80
2023-04-15T19:42:58.867Z,10.83
2023-04-15T19:48:01.936Z,10.80
2023-04-15T19:53:06.304Z,10.69
2023-04-15T19:58:28.899Z,10.72
2023-04-15T20:03:32.212Z,10.69
2023-04-15T20:08:36.565Z,10.65
2023-04-15T20:13:39.534Z,10.92
2023-04-15T20:18:42.440Z,10.87
2023-04-15T20:24:07.690Z,10.97
2023-04-15T20:29:10.942Z,10.86
2023-04-15T20:34:13.881Z,10.81
2023-04-15T20:39:18.082Z,10.92
2023-04-15T20:44:21.157Z,10.94
2023-04-15T20:49:40.493Z,10.95
2023-04-15T20:54:46.868Z,10.84
2023-04-15T20:59:49.866Z,10.90
2023-04-15T21:04:52.691Z,10.88
2023-04-15T21:09:57.137Z,10.95
2023-04-15T21:15:16.262Z,10.98
2023-04-15T21:20:19.294Z,11.00
2023-04-15T21:25:23.822Z,10.98
2023-04-15T21:30:26.668Z,10.93
2023-04-15T21:35:30.504Z,10.88
2023-04-15T21:40:53.843Z,10.93
2023-04-15T21:46:22.418Z,10.98
2023-04-15T21:51:19.634Z,10.88
2023-04-15T21:56:24.699Z,10.95
2023-04-15T22:01:27.777Z,10.98
2023-04-15T22:06:31.715Z,10.96
2023-04-15T22:11:35.929Z,11.05
2023-04-15T22:16:38.989Z,10.95
2023-04-15T22:21:41.940Z,11.00
2023-04-15T22:26:47.302Z,10.92
2023-04-15T22:32:05.662Z,10.90
2023-04-15T22:37:08.457Z,10.92
2023-04-15T22:42:12.703Z,10.81
2023-04-15T22:47:15.599Z,10.85
2023-04-15T22:52:29.392Z,10.83
2023-04-15T22:57:42.877Z,10.76
2023-04-15T23:02:45.832Z,10.59
2023-04-15T23:07:48.797Z,10.53
2023-04-15T23:12:52.981Z,10.63
2023-04-15T23:17:56.045Z,10.64
2023-04-15T23:23:19.336Z,10.63
2023-04-15T23:28:23.611Z,10.56
2023-04-15T23:33:26.769Z,10.52
2023-04-15T23:38:29.664Z,10.51
2023-04-15T23:43:34.008Z,10.56
2023-04-15T23:48:54.310Z,10.52
2023-04-15T23:53:57.116Z,10.53
2023-04-15T23:59:01.384Z,10.44
